sensor_id;sensor_type;location;lat;lon;timestamp;temperature;humidity
51801;DHT22;37855;53.204;6.568;2023-10-31T00:01:04;10.50;83.90
51801;DHT22;37855;53.204;6.568;2023-10-31T00:03:31;10.50;84.10
51801;DHT22;37855;53.204;6.568;2023-10-31T00:05:56;10.50;84.10
51801;DHT22;37855;53.204;6.568;2023-10-31T00:08:22;10.50;84.30
51801;DHT22;37855;53.204;6.568;2023-10-31T00:10:49;10.50;84.40
51801;DHT22;37855;53.204;6.568;2023-10-31T00:13:15;10.50;84.50
51801;DHT22;37855;53.204;6.568;2023-10-31T00:15:41;10.50;84.50
51801;DHT22;37855;53.204;6.568;2023-10-31T00:18:07;10.50;84.60
51801;DHT22;37855;53.204;6.568;2023-10-31T00:20:33;10.50;84.30
51801;DHT22;37855;53.204;6.568;2023-10-31T00:22:58;10.50;84.40
51801;DHT22;37855;53.204;6.568;2023-10-31T00:25:24;10.50;84.60
51801;DHT22;37855;53.204;6.568;2023-10-31T00:27:50;10.50;84.50
51801;DHT22;37855;53.204;6.568;2023-10-31T00:30:15;10.50;84.80
51801;DHT22;37855;53.204;6.568;2023-10-31T00:32:41;10.50;84.70
51801;DHT22;37855;53.204;6.568;2023-10-31T00:35:07;10.50;84.80
51801;DHT22;37855;53.204;6.568;2023-10-31T00:37:32;10.50;84.90
51801;DHT22;37855;53.204;6.568;2023-10-31T00:39:58;10.50;84.80
51801;DHT22;37855;53.204;6.568;2023-10-31T00:42:25;10.50;84.90
51801;DHT22;37855;53.204;6.568;2023-10-31T00:44:51;10.50;85.10
51801;DHT22;37855;53.204;6.568;2023-10-31T00:47:16;10.50;84.90
51801;DHT22;37855;53.204;6.568;2023-10-31T00:49:43;10.50;85.00
51801;DHT22;37855;53.204;6.568;2023-10-31T00:52:09;10.50;85.10
51801;DHT22;37855;53.204;6.568;2023-10-31T00:54:34;10.50;85.00
51801;DHT22;37855;53.204;6.568;2023-10-31T00:57:00;10.50;84.90
51801;DHT22;37855;53.204;6.568;2023-10-31T00:59:25;10.50;85.00
51801;DHT22;37855;53.204;6.568;2023-10-31T01:01:54;10.50;84.90
51801;DHT22;37855;53.204;6.568;2023-10-31T01:04:20;10.50;84.80
51801;DHT22;37855;53.204;6.568;2023-10-31T01:06:46;10.50;84.90
51801;DHT22;37855;53.204;6.568;2023-10-31T01:09:12;10.50;85.00
51801;DHT22;37855;53.204;6.568;2023-10-31T01:11:38;10.40;84.90
51801;DHT22;37855;53.204;6.568;2023-10-31T01:14:04;10.40;84.90
51801;DHT22;37855;53.204;6.568;2023-10-31T01:16:30;10.40;84.90
51801;DHT22;37855;53.204;6.568;2023-10-31T01:18:55;10.40;84.80
51801;DHT22;37855;53.204;6.568;2023-10-31T01:21:21;10.40;84.80
51801;DHT22;37855;53.204;6.568;2023-10-31T01:23:47;10.30;84.70
51801;DHT22;37855;53.204;6.568;2023-10-31T01:26:13;10.30;84.80
51801;DHT22;37855;53.204;6.568;2023-10-31T01:28:38;10.30;84.70
51801;DHT22;37855;53.204;6.568;2023-10-31T01:31:04;10.30;84.70
51801;DHT22;37855;53.204;6.568;2023-10-31T01:33:33;10.20;85.00
51801;DHT22;37855;53.204;6.568;2023-10-31T01:35:59;10.30;84.80
51801;DHT22;37855;53.204;6.568;2023-10-31T01:38:24;10.30;84.70
51801;DHT22;37855;53.204;6.568;2023-10-31T01:40:50;10.30;84.50
51801;DHT22;37855;53.204;6.568;2023-10-31T01:43:42;10.20;84.70
51801;DHT22;37855;53.204;6.568;2023-10-31T01:46:08;10.20;84.60
51801;DHT22;37855;53.204;6.568;2023-10-31T01:48:34;10.20;84.70
51801;DHT22;37855;53.204;6.568;2023-10-31T01:51:02;10.20;84.90
51801;DHT22;37855;53.204;6.568;2023-10-31T01:53:31;10.20;84.80
51801;DHT22;37855;53.204;6.568;2023-10-31T01:55:59;10.20;84.80
51801;DHT22;37855;53.204;6.568;2023-10-31T01:58:30;10.10;84.80
51801;DHT22;37855;53.204;6.568;2023-10-31T02:00:57;10.10;84.80
51801;DHT22;37855;53.204;6.568;2023-10-31T02:03:23;10.10;84.60
51801;DHT22;37855;53.204;6.568;2023-10-31T02:05:53;10.10;84.70
51801;DHT22;37855;53.204;6.568;2023-10-31T02:08:19;10.10;84.60
51801;DHT22;37855;53.204;6.568;2023-10-31T02:10:45;10.10;84.60
51801;DHT22;37855;53.204;6.568;2023-10-31T02:13:15;10.10;84.80
51801;DHT22;37855;53.204;6.568;2023-10-31T02:15:41;10.00;84.80
51801;DHT22;37855;53.204;6.568;2023-10-31T02:18:07;10.00;84.90
51801;DHT22;37855;53.204;6.568;2023-10-31T02:20:33;10.00;84.80
51801;DHT22;37855;53.204;6.568;2023-10-31T02:22:59;10.00;84.80
51801;DHT22;37855;53.204;6.568;2023-10-31T02:25:24;10.00;84.90
51801;DHT22;37855;53.204;6.568;2023-10-31T02:27:50;10.00;85.10
51801;DHT22;37855;53.204;6.568;2023-10-31T02:30:16;10.00;85.10
51801;DHT22;37855;53.204;6.568;2023-10-31T02:32:42;10.00;85.10
51801;DHT22;37855;53.204;6.568;2023-10-31T02:35:08;10.00;85.00
51801;DHT22;37855;53.204;6.568;2023-10-31T02:37:34;10.00;85.00
51801;DHT22;37855;53.204;6.568;2023-10-31T02:40:00;10.00;85.00
51801;DHT22;37855;53.204;6.568;2023-10-31T02:42:26;10.00;85.00
51801;DHT22;37855;53.204;6.568;2023-10-31T02:44:52;10.00;85.00
51801;DHT22;37855;53.204;6.568;2023-10-31T02:47:18;10.00;85.10
51801;DHT22;37855;53.204;6.568;2023-10-31T02:49:44;10.00;85.10
51801;DHT22;37855;53.204;6.568;2023-10-31T02:52:09;10.00;85.10
51801;DHT22;37855;53.204;6.568;2023-10-31T02:54:35;10.00;85.10
51801;DHT22;37855;53.204;6.568;2023-10-31T02:57:02;10.00;85.10
51801;DHT22;37855;53.204;6.568;2023-10-31T02:59:27;10.00;85.10
51801;DHT22;37855;53.204;6.568;2023-10-31T03:01:55;10.00;85.10
51801;DHT22;37855;53.204;6.568;2023-10-31T03:04:21;10.00;85.20
51801;DHT22;37855;53.204;6.568;2023-10-31T03:06:47;10.00;85.30
51801;DHT22;37855;53.204;6.568;2023-10-31T03:09:12;9.90;85.30
51801;DHT22;37855;53.204;6.568;2023-10-31T03:11:38;9.90;85.20
51801;DHT22;37855;53.204;6.568;2023-10-31T03:14:04;9.90;85.30
51801;DHT22;37855;53.204;6.568;2023-10-31T03:16:30;9.90;85.40
51801;DHT22;37855;53.204;6.568;2023-10-31T03:18:56;10.00;85.40
51801;DHT22;37855;53.204;6.568;2023-10-31T03:21:22;9.90;85.50
51801;DHT22;37855;53.204;6.568;2023-10-31T03:23:51;9.90;85.50
51801;DHT22;37855;53.204;6.568;2023-10-31T03:26:19;9.90;85.40
51801;DHT22;37855;53.204;6.568;2023-10-31T03:28:45;9.90;85.40
51801;DHT22;37855;53.204;6.568;2023-10-31T03:31:13;10.00;85.40
51801;DHT22;37855;53.204;6.568;2023-10-31T03:33:39;9.90;85.40
51801;DHT22;37855;53.204;6.568;2023-10-31T03:36:05;10.00;85.40
51801;DHT22;37855;53.204;6.568;2023-10-31T03:38:31;10.00;85.50
51801;DHT22;37855;53.204;6.568;2023-10-31T03:40:57;10.00;85.40
51801;DHT22;37855;53.204;6.568;2023-10-31T03:43:26;10.00;85.50
51801;DHT22;37855;53.204;6.568;2023-10-31T03:45:52;10.00;85.60
51801;DHT22;37855;53.204;6.568;2023-10-31T03:48:17;10.00;85.50
51801;DHT22;37855;53.204;6.568;2023-10-31T03:50:43;9.90;85.50
51801;DHT22;37855;53.204;6.568;2023-10-31T03:53:09;10.00;85.50
51801;DHT22;37855;53.204;6.568;2023-10-31T03:55:35;10.00;85.50
51801;DHT22;37855;53.204;6.568;2023-10-31T03:58:00;10.00;85.60
51801;DHT22;37855;53.204;6.568;2023-10-31T04:00:26;10.00;85.70
51801;DHT22;37855;53.204;6.568;2023-10-31T04:02:52;10.00;85.70
51801;DHT22;37855;53.204;6.568;2023-10-31T04:05:18;10.00;85.70
51801;DHT22;37855;53.204;6.568;2023-10-31T04:07:46;10.10;85.60
51801;DHT22;37855;53.204;6.568;2023-10-31T04:10:12;10.10;85.50
51801;DHT22;37855;53.204;6.568;2023-10-31T04:12:38;10.10;85.60
51801;DHT22;37855;53.204;6.568;2023-10-31T04:15:04;10.10;85.60
51801;DHT22;37855;53.204;6.568;2023-10-31T04:17:30;10.10;85.60
51801;DHT22;37855;53.204;6.568;2023-10-31T04:19:56;10.10;85.80
51801;DHT22;37855;53.204;6.568;2023-10-31T04:22:21;10.10;85.70
51801;DHT22;37855;53.204;6.568;2023-10-31T04:24:47;10.10;85.80
51801;DHT22;37855;53.204;6.568;2023-10-31T04:27:12;10.10;85.70
51801;DHT22;37855;53.204;6.568;2023-10-31T04:29:38;10.10;85.70
51801;DHT22;37855;53.204;6.568;2023-10-31T04:32:05;10.10;85.80
51801;DHT22;37855;53.204;6.568;2023-10-31T04:34:31;10.10;85.80
51801;DHT22;37855;53.204;6.568;2023-10-31T04:36:57;10.10;85.70
51801;DHT22;37855;53.204;6.568;2023-10-31T04:39:23;10.10;85.60
51801;DHT22;37855;53.204;6.568;2023-10-31T04:41:49;10.20;85.60
51801;DHT22;37855;53.204;6.568;2023-10-31T04:44:14;10.10;85.70
51801;DHT22;37855;53.204;6.568;2023-10-31T04:46:40;10.10;85.70
51801;DHT22;37855;53.204;6.568;2023-10-31T04:49:06;10.10;85.70
51801;DHT22;37855;53.204;6.568;2023-10-31T04:51:35;10.10;85.70
51801;DHT22;37855;53.204;6.568;2023-10-31T04:54:02;10.10;85.70
51801;DHT22;37855;53.204;6.568;2023-10-31T04:56:28;10.10;85.80
51801;DHT22;37855;53.204;6.568;2023-10-31T04:58:53;10.10;85.80
51801;DHT22;37855;53.204;6.568;2023-10-31T05:01:22;10.10;85.70
51801;DHT22;37855;53.204;6.568;2023-10-31T05:03:48;10.10;85.70
51801;DHT22;37855;53.204;6.568;2023-10-31T05:06:19;10.00;85.80
51801;DHT22;37855;53.204;6.568;2023-10-31T05:08:46;10.10;85.90
51801;DHT22;37855;53.204;6.568;2023-10-31T05:11:12;10.00;85.90
51801;DHT22;37855;53.204;6.568;2023-10-31T05:13:39;10.00;85.90
51801;DHT22;37855;53.204;6.568;2023-10-31T05:16:05;10.00;86.00
51801;DHT22;37855;53.204;6.568;2023-10-31T05:18:31;10.10;86.00
51801;DHT22;37855;53.204;6.568;2023-10-31T05:20:57;10.10;86.00
51801;DHT22;37855;53.204;6.568;2023-10-31T05:23:22;10.10;86.00
51801;DHT22;37855;53.204;6.568;2023-10-31T05:25:48;10.10;86.00
51801;DHT22;37855;53.204;6.568;2023-10-31T05:28:13;10.10;86.00
51801;DHT22;37855;53.204;6.568;2023-10-31T05:30:39;10.10;86.00
51801;DHT22;37855;53.204;6.568;2023-10-31T05:33:05;10.10;85.90
51801;DHT22;37855;53.204;6.568;2023-10-31T05:35:34;10.10;85.90
51801;DHT22;37855;53.204;6.568;2023-10-31T05:37:59;10.10;85.70
51801;DHT22;37855;53.204;6.568;2023-10-31T05:40:28;10.10;85.70
51801;DHT22;37855;53.204;6.568;2023-10-31T05:42:54;10.10;85.70
51801;DHT22;37855;53.204;6.568;2023-10-31T05:45:21;10.10;85.50
51801;DHT22;37855;53.204;6.568;2023-10-31T05:47:46;10.00;85.50
51801;DHT22;37855;53.204;6.568;2023-10-31T05:50:15;10.00;85.50
51801;DHT22;37855;53.204;6.568;2023-10-31T05:52:40;10.00;85.60
51801;DHT22;37855;53.204;6.568;2023-10-31T05:55:06;10.00;85.70
51801;DHT22;37855;53.204;6.568;2023-10-31T05:57:33;10.00;85.70
51801;DHT22;37855;53.204;6.568;2023-10-31T05:59:58;10.00;85.60
51801;DHT22;37855;53.204;6.568;2023-10-31T06:02:24;10.00;85.70
51801;DHT22;37855;53.204;6.568;2023-10-31T06:04:49;10.00;85.70
51801;DHT22;37855;53.204;6.568;2023-10-31T06:07:15;10.00;85.80
51801;DHT22;37855;53.204;6.568;2023-10-31T06:09:44;10.00;85.70
51801;DHT22;37855;53.204;6.568;2023-10-31T06:12:10;10.00;85.80
51801;DHT22;37855;53.204;6.568;2023-10-31T06:14:36;10.00;85.80
51801;DHT22;37855;53.204;6.568;2023-10-31T06:17:02;10.00;85.70
51801;DHT22;37855;53.204;6.568;2023-10-31T06:19:35;10.00;85.80
51801;DHT22;37855;53.204;6.568;2023-10-31T06:22:01;10.00;85.80
51801;DHT22;37855;53.204;6.568;2023-10-31T06:24:27;10.00;85.90
51801;DHT22;37855;53.204;6.568;2023-10-31T06:26:56;10.10;85.80
51801;DHT22;37855;53.204;6.568;2023-10-31T06:29:24;10.10;85.70
51801;DHT22;37855;53.204;6.568;2023-10-31T06:31:50;10.00;85.80
51801;DHT22;37855;53.204;6.568;2023-10-31T06:34:19;10.10;85.80
51801;DHT22;37855;53.204;6.568;2023-10-31T06:36:44;10.10;85.90
51801;DHT22;37855;53.204;6.568;2023-10-31T06:39:10;10.10;85.70
51801;DHT22;37855;53.204;6.568;2023-10-31T06:41:36;10.10;85.70
51801;DHT22;37855;53.204;6.568;2023-10-31T06:44:01;10.10;85.80
51801;DHT22;37855;53.204;6.568;2023-10-31T06:46:27;10.10;86.00
51801;DHT22;37855;53.204;6.568;2023-10-31T06:48:53;10.10;85.90
51801;DHT22;37855;53.204;6.568;2023-10-31T06:51:18;10.20;85.90
51801;DHT22;37855;53.204;6.568;2023-10-31T06:53:44;10.20;85.90
51801;DHT22;37855;53.204;6.568;2023-10-31T06:56:10;10.20;85.90
51801;DHT22;37855;53.204;6.568;2023-10-31T06:58:36;10.20;85.90
51801;DHT22;37855;53.204;6.568;2023-10-31T07:01:01;10.20;86.00
51801;DHT22;37855;53.204;6.568;2023-10-31T07:03:27;10.20;85.90
51801;DHT22;37855;53.204;6.568;2023-10-31T07:05:53;10.20;86.00
51801;DHT22;37855;53.204;6.568;2023-10-31T07:08:21;10.20;86.10
51801;DHT22;37855;53.204;6.568;2023-10-31T07:10:47;10.20;86.20
51801;DHT22;37855;53.204;6.568;2023-10-31T07:13:13;10.20;86.10
51801;DHT22;37855;53.204;6.568;2023-10-31T07:15:38;10.20;86.00
51801;DHT22;37855;53.204;6.568;2023-10-31T07:18:05;10.20;86.10
51801;DHT22;37855;53.204;6.568;2023-10-31T07:20:33;10.20;86.20
51801;DHT22;37855;53.204;6.568;2023-10-31T07:22:58;10.20;86.20
51801;DHT22;37855;53.204;6.568;2023-10-31T07:25:24;10.20;86.20
51801;DHT22;37855;53.204;6.568;2023-10-31T07:27:50;10.20;86.20
51801;DHT22;37855;53.204;6.568;2023-10-31T07:30:15;10.20;86.20
51801;DHT22;37855;53.204;6.568;2023-10-31T07:32:41;10.20;86.20
51801;DHT22;37855;53.204;6.568;2023-10-31T07:35:07;10.20;86.10
51801;DHT22;37855;53.204;6.568;2023-10-31T07:37:32;10.20;86.20
51801;DHT22;37855;53.204;6.568;2023-10-31T07:39:58;10.30;86.00
51801;DHT22;37855;53.204;6.568;2023-10-31T07:42:23;10.30;86.00
51801;DHT22;37855;53.204;6.568;2023-10-31T07:44:49;10.30;86.00
51801;DHT22;37855;53.204;6.568;2023-10-31T07:47:15;10.30;86.00
51801;DHT22;37855;53.204;6.568;2023-10-31T07:49:41;10.30;86.00
51801;DHT22;37855;53.204;6.568;2023-10-31T07:52:07;10.30;86.10
51801;DHT22;37855;53.204;6.568;2023-10-31T07:54:32;10.30;86.00
51801;DHT22;37855;53.204;6.568;2023-10-31T07:56:58;10.40;85.90
51801;DHT22;37855;53.204;6.568;2023-10-31T07:59:24;10.40;85.90
51801;DHT22;37855;53.204;6.568;2023-10-31T08:01:49;10.40;85.70
51801;DHT22;37855;53.204;6.568;2023-10-31T08:04:17;10.40;85.80
51801;DHT22;37855;53.204;6.568;2023-10-31T08:06:43;10.50;85.80
51801;DHT22;37855;53.204;6.568;2023-10-31T08:09:08;10.50;85.80
51801;DHT22;37855;53.204;6.568;2023-10-31T08:11:34;10.50;85.80
51801;DHT22;37855;53.204;6.568;2023-10-31T08:14:00;10.60;85.70
51801;DHT22;37855;53.204;6.568;2023-10-31T08:16:27;10.70;85.60
51801;DHT22;37855;53.204;6.568;2023-10-31T08:18:53;10.70;85.40
51801;DHT22;37855;53.204;6.568;2023-10-31T08:21:19;10.80;85.40
51801;DHT22;37855;53.204;6.568;2023-10-31T08:23:44;10.80;85.40
51801;DHT22;37855;53.204;6.568;2023-10-31T08:26:12;10.80;85.30
51801;DHT22;37855;53.204;6.568;2023-10-31T08:28:38;10.80;85.30
51801;DHT22;37855;53.204;6.568;2023-10-31T08:31:04;10.90;85.10
51801;DHT22;37855;53.204;6.568;2023-10-31T08:33:30;10.90;85.10
51801;DHT22;37855;53.204;6.568;2023-10-31T08:35:55;10.90;85.10
51801;DHT22;37855;53.204;6.568;2023-10-31T08:38:21;10.90;85.10
51801;DHT22;37855;53.204;6.568;2023-10-31T08:40:46;11.00;85.10
51801;DHT22;37855;53.204;6.568;2023-10-31T08:43:12;11.00;84.90
51801;DHT22;37855;53.204;6.568;2023-10-31T08:45:38;11.00;84.90
51801;DHT22;37855;53.204;6.568;2023-10-31T08:48:04;11.10;85.00
51801;DHT22;37855;53.204;6.568;2023-10-31T08:50:30;11.10;84.90
51801;DHT22;37855;53.204;6.568;2023-10-31T08:52:55;11.20;85.00
51801;DHT22;37855;53.204;6.568;2023-10-31T08:55:21;11.20;84.80
51801;DHT22;37855;53.204;6.568;2023-10-31T08:57:46;11.20;84.80
51801;DHT22;37855;53.204;6.568;2023-10-31T09:00:12;11.30;84.60
51801;DHT22;37855;53.204;6.568;2023-10-31T09:02:38;11.30;84.50
51801;DHT22;37855;53.204;6.568;2023-10-31T09:05:04;11.30;84.40
51801;DHT22;37855;53.204;6.568;2023-10-31T09:07:30;11.30;84.10
51801;DHT22;37855;53.204;6.568;2023-10-31T09:09:56;11.30;84.20
51801;DHT22;37855;53.204;6.568;2023-10-31T09:12:21;11.30;84.10
51801;DHT22;37855;53.204;6.568;2023-10-31T09:14:47;11.20;84.10
51801;DHT22;37855;53.204;6.568;2023-10-31T09:17:12;11.30;83.90
51801;DHT22;37855;53.204;6.568;2023-10-31T09:19:38;11.20;83.40
51801;DHT22;37855;53.204;6.568;2023-10-31T09:22:04;11.20;83.20
51801;DHT22;37855;53.204;6.568;2023-10-31T09:24:29;11.10;83.10
51801;DHT22;37855;53.204;6.568;2023-10-31T09:26:55;11.10;83.20
51801;DHT22;37855;53.204;6.568;2023-10-31T09:29:21;11.00;83.00
51801;DHT22;37855;53.204;6.568;2023-10-31T09:31:46;11.00;83.10
51801;DHT22;37855;53.204;6.568;2023-10-31T09:34:13;10.90;83.30
51801;DHT22;37855;53.204;6.568;2023-10-31T09:36:39;10.90;83.20
51801;DHT22;37855;53.204;6.568;2023-10-31T09:39:05;10.90;83.10
51801;DHT22;37855;53.204;6.568;2023-10-31T09:41:31;10.90;82.80
51801;DHT22;37855;53.204;6.568;2023-10-31T09:43:58;10.90;82.90
51801;DHT22;37855;53.204;6.568;2023-10-31T09:46:23;10.90;82.90
51801;DHT22;37855;53.204;6.568;2023-10-31T09:48:49;10.90;82.80
51801;DHT22;37855;53.204;6.568;2023-10-31T09:51:15;10.90;82.30
51801;DHT22;37855;53.204;6.568;2023-10-31T09:53:44;10.90;82.20
51801;DHT22;37855;53.204;6.568;2023-10-31T09:56:10;10.90;82.20
51801;DHT22;37855;53.204;6.568;2023-10-31T09:58:36;11.00;81.70
51801;DHT22;37855;53.204;6.568;2023-10-31T10:01:04;11.00;81.10
51801;DHT22;37855;53.204;6.568;2023-10-31T10:03:30;11.00;80.60
51801;DHT22;37855;53.204;6.568;2023-10-31T10:05:55;11.10;80.20
51801;DHT22;37855;53.204;6.568;2023-10-31T10:08:22;11.10;79.80
51801;DHT22;37855;53.204;6.568;2023-10-31T10:10:48;11.10;79.70
51801;DHT22;37855;53.204;6.568;2023-10-31T10:13:17;11.20;79.50
51801;DHT22;37855;53.204;6.568;2023-10-31T10:15:47;11.20;79.00
51801;DHT22;37855;53.204;6.568;2023-10-31T10:18:29;11.30;78.60
51801;DHT22;37855;53.204;6.568;2023-10-31T10:21:04;11.40;78.20
51801;DHT22;37855;53.204;6.568;2023-10-31T10:23:31;11.40;78.20
51801;DHT22;37855;53.204;6.568;2023-10-31T10:25:59;11.50;77.90
51801;DHT22;37855;53.204;6.568;2023-10-31T10:28:26;11.50;78.00
51801;DHT22;37855;53.204;6.568;2023-10-31T10:30:54;11.60;77.60
51801;DHT22;37855;53.204;6.568;2023-10-31T10:33:20;11.60;77.10
51801;DHT22;37855;53.204;6.568;2023-10-31T10:35:46;11.60;77.20
51801;DHT22;37855;53.204;6.568;2023-10-31T10:38:17;11.60;77.10
51801;DHT22;37855;53.204;6.568;2023-10-31T10:40:45;11.60;77.50
51801;DHT22;37855;53.204;6.568;2023-10-31T10:43:23;11.60;77.90
51801;DHT22;37855;53.204;6.568;2023-10-31T10:45:58;11.60;77.20
51801;DHT22;37855;53.204;6.568;2023-10-31T10:48:28;11.60;76.30
51801;DHT22;37855;53.204;6.568;2023-10-31T10:51:00;11.50;76.30
51801;DHT22;37855;53.204;6.568;2023-10-31T10:53:30;11.50;76.70
51801;DHT22;37855;53.204;6.568;2023-10-31T10:56:18;11.50;76.80
51801;DHT22;37855;53.204;6.568;2023-10-31T10:59:01;11.50;77.00
51801;DHT22;37855;53.204;6.568;2023-10-31T11:01:30;11.50;76.50
51801;DHT22;37855;53.204;6.568;2023-10-31T11:03:56;11.40;76.90
51801;DHT22;37855;53.204;6.568;2023-10-31T11:06:23;11.50;77.10
51801;DHT22;37855;53.204;6.568;2023-10-31T11:08:49;11.50;77.30
51801;DHT22;37855;53.204;6.568;2023-10-31T11:11:19;11.60;77.40
51801;DHT22;37855;53.204;6.568;2023-10-31T11:13:46;11.70;77.00
51801;DHT22;37855;53.204;6.568;2023-10-31T11:16:17;11.80;76.80
51801;DHT22;37855;53.204;6.568;2023-10-31T11:18:46;11.90;76.80
51801;DHT22;37855;53.204;6.568;2023-10-31T11:21:12;11.90;75.80
51801;DHT22;37855;53.204;6.568;2023-10-31T11:23:37;12.00;74.90
51801;DHT22;37855;53.204;6.568;2023-10-31T11:26:08;12.00;73.90
51801;DHT22;37855;53.204;6.568;2023-10-31T11:28:36;12.00;73.40
51801;DHT22;37855;53.204;6.568;2023-10-31T11:31:01;12.00;73.30
51801;DHT22;37855;53.204;6.568;2023-10-31T11:33:28;11.90;73.70
51801;DHT22;37855;53.204;6.568;2023-10-31T11:36:01;11.90;73.70
51801;DHT22;37855;53.204;6.568;2023-10-31T11:38:37;11.90;73.50
51801;DHT22;37855;53.204;6.568;2023-10-31T11:41:04;11.90;73.60
51801;DHT22;37855;53.204;6.568;2023-10-31T11:46:05;11.90;73.70
51801;DHT22;37855;53.204;6.568;2023-10-31T11:48:51;11.90;73.20
51801;DHT22;37855;53.204;6.568;2023-10-31T11:51:17;11.90;72.80
51801;DHT22;37855;53.204;6.568;2023-10-31T11:53:48;11.90;72.10
51801;DHT22;37855;53.204;6.568;2023-10-31T11:56:15;11.90;71.80
51801;DHT22;37855;53.204;6.568;2023-10-31T11:58:41;11.80;71.80
51801;DHT22;37855;53.204;6.568;2023-10-31T12:01:08;11.80;71.90
51801;DHT22;37855;53.204;6.568;2023-10-31T12:03:41;11.70;72.40
51801;DHT22;37855;53.204;6.568;2023-10-31T12:06:10;11.70;72.20
51801;DHT22;37855;53.204;6.568;2023-10-31T12:08:41;11.70;72.70
51801;DHT22;37855;53.204;6.568;2023-10-31T12:11:13;11.70;72.80
51801;DHT22;37855;53.204;6.568;2023-10-31T12:16:18;11.60;73.00
51801;DHT22;37855;53.204;6.568;2023-10-31T12:18:43;11.60;73.40
51801;DHT22;37855;53.204;6.568;2023-10-31T12:21:10;11.60;73.40
51801;DHT22;37855;53.204;6.568;2023-10-31T12:23:39;11.60;73.50
51801;DHT22;37855;53.204;6.568;2023-10-31T12:26:06;11.60;73.60
51801;DHT22;37855;53.204;6.568;2023-10-31T12:28:34;11.60;73.70
51801;DHT22;37855;53.204;6.568;2023-10-31T12:31:03;11.60;73.90
51801;DHT22;37855;53.204;6.568;2023-10-31T12:33:30;11.60;73.90
51801;DHT22;37855;53.204;6.568;2023-10-31T12:35:58;11.60;73.80
51801;DHT22;37855;53.204;6.568;2023-10-31T12:38:25;11.60;74.00
51801;DHT22;37855;53.204;6.568;2023-10-31T12:40:55;11.60;74.20
51801;DHT22;37855;53.204;6.568;2023-10-31T12:43:23;11.60;74.00
51801;DHT22;37855;53.204;6.568;2023-10-31T12:45:48;11.60;73.10
51801;DHT22;37855;53.204;6.568;2023-10-31T12:48:14;11.60;74.10
51801;DHT22;37855;53.204;6.568;2023-10-31T12:50:40;11.50;74.10
51801;DHT22;37855;53.204;6.568;2023-10-31T12:53:08;11.40;74.40
51801;DHT22;37855;53.204;6.568;2023-10-31T12:55:41;11.30;74.90
51801;DHT22;37855;53.204;6.568;2023-10-31T12:58:08;11.20;74.90
51801;DHT22;37855;53.204;6.568;2023-10-31T13:00:40;11.10;75.20
51801;DHT22;37855;53.204;6.568;2023-10-31T13:03:09;11.10;75.70
51801;DHT22;37855;53.204;6.568;2023-10-31T13:05:37;11.00;75.90
51801;DHT22;37855;53.204;6.568;2023-10-31T13:08:14;11.00;76.00
51801;DHT22;37855;53.204;6.568;2023-10-31T13:10:44;10.90;76.10
51801;DHT22;37855;53.204;6.568;2023-10-31T13:13:09;10.90;75.90
51801;DHT22;37855;53.204;6.568;2023-10-31T13:15:36;10.90;75.70
51801;DHT22;37855;53.204;6.568;2023-10-31T13:18:03;10.80;75.90
51801;DHT22;37855;53.204;6.568;2023-10-31T13:20:29;10.70;76.40
51801;DHT22;37855;53.204;6.568;2023-10-31T13:22:55;10.70;76.70
51801;DHT22;37855;53.204;6.568;2023-10-31T13:25:21;10.60;77.00
51801;DHT22;37855;53.204;6.568;2023-10-31T13:27:47;10.60;77.30
51801;DHT22;37855;53.204;6.568;2023-10-31T13:30:17;10.60;77.80
51801;DHT22;37855;53.204;6.568;2023-10-31T13:32:43;10.50;78.10
51801;DHT22;37855;53.204;6.568;2023-10-31T13:35:09;10.60;78.30
51801;DHT22;37855;53.204;6.568;2023-10-31T13:37:36;10.60;78.60
51801;DHT22;37855;53.204;6.568;2023-10-31T13:40:03;10.60;78.70
51801;DHT22;37855;53.204;6.568;2023-10-31T13:42:28;10.70;78.10
51801;DHT22;37855;53.204;6.568;2023-10-31T13:44:54;10.60;78.20
51801;DHT22;37855;53.204;6.568;2023-10-31T13:47:20;10.60;78.50
51801;DHT22;37855;53.204;6.568;2023-10-31T13:49:46;10.50;78.50
51801;DHT22;37855;53.204;6.568;2023-10-31T13:52:12;10.60;78.40
51801;DHT22;37855;53.204;6.568;2023-10-31T13:54:38;10.60;78.20
51801;DHT22;37855;53.204;6.568;2023-10-31T13:57:03;10.60;78.40
51801;DHT22;37855;53.204;6.568;2023-10-31T13:59:29;10.70;78.50
51801;DHT22;37855;53.204;6.568;2023-10-31T14:01:55;10.70;78.70
51801;DHT22;37855;53.204;6.568;2023-10-31T14:04:20;10.80;78.30
51801;DHT22;37855;53.204;6.568;2023-10-31T14:06:46;10.90;78.10
51801;DHT22;37855;53.204;6.568;2023-10-31T14:09:12;10.90;78.70
51801;DHT22;37855;53.204;6.568;2023-10-31T14:11:39;10.80;79.30
51801;DHT22;37855;53.204;6.568;2023-10-31T14:14:06;10.80;79.10
51801;DHT22;37855;53.204;6.568;2023-10-31T14:16:37;10.90;78.60
51801;DHT22;37855;53.204;6.568;2023-10-31T14:19:04;10.80;78.70
51801;DHT22;37855;53.204;6.568;2023-10-31T14:21:31;10.80;78.80
51801;DHT22;37855;53.204;6.568;2023-10-31T14:23:56;10.80;77.70
51801;DHT22;37855;53.204;6.568;2023-10-31T14:26:23;10.80;78.60
51801;DHT22;37855;53.204;6.568;2023-10-31T14:28:49;10.80;78.60
51801;DHT22;37855;53.204;6.568;2023-10-31T14:31:16;10.70;78.00
51801;DHT22;37855;53.204;6.568;2023-10-31T14:33:42;10.70;78.20
51801;DHT22;37855;53.204;6.568;2023-10-31T14:36:09;10.60;78.00
51801;DHT22;37855;53.204;6.568;2023-10-31T14:38:37;10.60;78.50
51801;DHT22;37855;53.204;6.568;2023-10-31T14:41:02;10.60;78.30
51801;DHT22;37855;53.204;6.568;2023-10-31T14:43:29;10.50;78.10
51801;DHT22;37855;53.204;6.568;2023-10-31T14:45:55;10.50;78.50
51801;DHT22;37855;53.204;6.568;2023-10-31T14:48:21;10.50;78.20
51801;DHT22;37855;53.204;6.568;2023-10-31T14:50:47;10.50;77.90
51801;DHT22;37855;53.204;6.568;2023-10-31T14:53:14;10.50;77.80
51801;DHT22;37855;53.204;6.568;2023-10-31T14:55:40;10.50;78.00
51801;DHT22;37855;53.204;6.568;2023-10-31T14:58:06;10.50;78.00
51801;DHT22;37855;53.204;6.568;2023-10-31T15:00:34;10.50;78.10
51801;DHT22;37855;53.204;6.568;2023-10-31T15:03:00;10.60;77.90
51801;DHT22;37855;53.204;6.568;2023-10-31T15:05:26;10.60;78.10
51801;DHT22;37855;53.204;6.568;2023-10-31T15:07:51;10.50;78.20
51801;DHT22;37855;53.204;6.568;2023-10-31T15:10:18;10.40;78.10
51801;DHT22;37855;53.204;6.568;2023-10-31T15:12:46;10.40;78.40
51801;DHT22;37855;53.204;6.568;2023-10-31T15:15:14;10.30;78.50
51801;DHT22;37855;53.204;6.568;2023-10-31T15:17:40;10.40;78.50
51801;DHT22;37855;53.204;6.568;2023-10-31T15:20:06;10.20;78.70
51801;DHT22;37855;53.204;6.568;2023-10-31T15:22:35;10.30;78.60
51801;DHT22;37855;53.204;6.568;2023-10-31T15:25:01;10.20;78.70
51801;DHT22;37855;53.204;6.568;2023-10-31T15:27:27;10.20;78.60
51801;DHT22;37855;53.204;6.568;2023-10-31T15:29:52;10.10;78.80
51801;DHT22;37855;53.204;6.568;2023-10-31T15:32:18;10.10;79.00
51801;DHT22;37855;53.204;6.568;2023-10-31T15:34:44;10.00;79.00